createdAt,value
2017-07-21T00:00:53.603Z,941.4
2017-07-21T00:02:01.631Z,941.4
2017-07-21T00:03:09.719Z,941.4
2017-07-21T00:04:17.813Z,941.4
2017-07-21T00:05:26.018Z,941.4
2017-07-21T00:06:33.988Z,941.4
2017-07-21T00:07:42.073Z,941.4
2017-07-21T00:08:50.165Z,941.4
2017-07-21T00:09:58.250Z,941.4
2017-07-21T00:11:06.396Z,941.5
2017-07-21T00:12:14.430Z,941.5
2017-07-21T00:13:22.516Z,941.5
2017-07-21T00:14:30.784Z,941.5
2017-07-21T00:15:38.696Z,941.5
2017-07-21T00:16:46.903Z,941.5
2017-07-21T00:17:54.871Z,941.5
2017-07-21T00:19:02.966Z,941.4
2017-07-21T00:20:11.099Z,941.4
2017-07-21T00:21:19.182Z,941.4
2017-07-21T00:22:27.288Z,941.4
2017-07-21T00:23:35.321Z,941.4
2017-07-21T00:24:43.410Z,941.3
2017-07-21T00:25:51.499Z,941.3
2017-07-21T00:26:59.587Z,941.3
2017-07-21T00:28:07.738Z,941.3
2017-07-21T00:29:15.771Z,941.3
2017-07-21T00:30:23.861Z,941.4
2017-07-21T00:31:32.012Z,941.3
2017-07-21T00:32:40.158Z,941.3
2017-07-21T00:33:48.186Z,941.4
2017-07-21T00:34:56.218Z,941.4
2017-07-21T00:36:04.304Z,941.4
2017-07-21T00:37:12.392Z,941.3
2017-07-21T00:38:20.482Z,941.4
2017-07-21T00:39:28.627Z,941.4
2017-07-21T00:40:36.657Z,941.3
2017-07-21T00:41:44.751Z,941.4
2017-07-21T00:42:52.851Z,941.4
2017-07-21T00:44:00.925Z,941.3
2017-07-21T00:45:09.070Z,941.3
2017-07-21T00:46:17.102Z,941.3
2017-07-21T00:47:25.192Z,941.3
2017-07-21T00:48:33.399Z,941.3
2017-07-21T00:49:41.368Z,941.2
2017-07-21T00:50:49.514Z,941.2
2017-07-21T00:51:57.545Z,941.2
2017-07-21T00:53:05.798Z,941.2
2017-07-21T00:54:13.734Z,941.2
2017-07-21T00:55:21.814Z,941.2
2017-07-21T00:56:29.962Z,941.2
2017-07-21T00:57:37.993Z,941.2
2017-07-21T00:58:46.122Z,941.3
2017-07-21T00:59:54.231Z,941.3
2017-07-21T01:01:02.261Z,941.2
2017-07-21T01:02:10.405Z,941.2
2017-07-21T01:03:18.436Z,941.2
2017-07-21T01:04:26.645Z,941.2
2017-07-21T01:05:34.611Z,941.2
2017-07-21T01:06:42.701Z,941.2
2017-07-21T01:07:50.846Z,941.2
2017-07-21T01:08:58.878Z,941.2
2017-07-21T01:10:07.136Z,941.2
2017-07-21T01:11:15.057Z,941.2
2017-07-21T01:12:23.163Z,941.2
2017-07-21T01:13:31.288Z,941.2
2017-07-21T01:14:39.321Z,941.2
2017-07-21T01:15:47.475Z,941.2
2017-07-21T01:16:55.567Z,941.2
2017-07-21T01:18:03.587Z,941.2
2017-07-21T01:19:11.796Z,941.2
2017-07-21T01:20:19.820Z,941.2
2017-07-21T01:21:27.852Z,941.2
2017-07-21T01:22:35.941Z,941.2
2017-07-21T01:23:44.030Z,941.2
2017-07-21T01:24:52.175Z,941.2
2017-07-21T01:26:00.205Z,941.1
2017-07-21T01:27:08.424Z,941.1
2017-07-21T01:28:16.383Z,941.1
2017-07-21T01:29:24.473Z,941.1
2017-07-21T01:30:32.618Z,941.1
2017-07-21T01:31:40.652Z,941.1
2017-07-21T01:32:48.741Z,941.1
2017-07-21T01:33:56.827Z,941.0
2017-07-21T01:35:04.914Z,941.0
2017-07-21T01:36:13.062Z,941.0
2017-07-21T01:37:21.094Z,941.0
2017-07-21T01:38:29.183Z,941.0
2017-07-21T01:39:37.271Z,941.0
2017-07-21T01:40:45.361Z,941.0
2017-07-21T01:41:53.570Z,941.0
2017-07-21T01:43:01.538Z,940.9
2017-07-21T01:44:09.712Z,941.0
2017-07-21T01:45:17.712Z,940.9
2017-07-21T01:46:25.802Z,940.9
2017-07-21T01:47:33.946Z,940.9
2017-07-21T01:48:41.979Z,940.9
2017-07-21T01:49:50.130Z,940.9
2017-07-21T01:50:58.235Z,940.9
2017-07-21T01:52:06.367Z,940.9
2017-07-21T01:53:14.389Z,940.9
2017-07-21T01:54:22.421Z,940.9
2017-07-21T01:55:30.507Z,940.9
2017-07-21T01:56:38.598Z,940.8
2017-07-21T01:57:46.686Z,940.8
2017-07-21T01:58:54.832Z,940.8
2017-07-21T02:00:02.863Z,940.7
2017-07-21T02:01:11.093Z,940.8
2017-07-21T02:02:19.042Z,940.7
2017-07-21T02:03:27.130Z,940.7
2017-07-21T02:04:35.274Z,940.7
2017-07-21T02:05:43.306Z,940.7
2017-07-21T02:06:51.418Z,940.8
2017-07-21T02:07:59.643Z,940.7
2017-07-21T02:09:07.575Z,940.7
2017-07-21T02:10:15.726Z,940.7
2017-07-21T02:11:23.759Z,940.7
2017-07-21T02:12:31.845Z,940.7
2017-07-21T02:13:39.933Z,940.7
2017-07-21T02:14:48.025Z,940.7
2017-07-21T02:15:56.168Z,940.7
2017-07-21T02:17:04.201Z,940.8
2017-07-21T02:18:12.397Z,940.7
2017-07-21T02:19:20.378Z,940.7
2017-07-21T02:20:28.467Z,940.7
2017-07-21T02:21:36.675Z,940.6
2017-07-21T02:22:44.642Z,940.7
2017-07-21T02:23:52.786Z,940.7
2017-07-21T02:25:00.819Z,940.7
2017-07-21T02:26:08.906Z,940.6
2017-07-21T02:27:17.053Z,940.6
2017-07-21T02:28:25.084Z,940.6
2017-07-21T02:29:33.337Z,940.6
2017-07-21T02:30:41.262Z,940.6
2017-07-21T02:31:49.351Z,940.6
2017-07-21T02:32:57.558Z,940.6
2017-07-21T02:34:05.605Z,940.5
2017-07-21T02:35:13.696Z,940.5
2017-07-21T02:36:21.700Z,940.5
2017-07-21T02:37:29.795Z,940.5
2017-07-21T02:38:37.937Z,940.5
2017-07-21T02:39:46.026Z,940.5
2017-07-21T02:40:54.079Z,940.5
2017-07-21T02:42:02.168Z,940.5
2017-07-21T02:43:10.232Z,940.5
2017-07-21T02:44:18.378Z,940.5
2017-07-21T02:45:26.410Z,940.5
2017-07-21T02:46:34.497Z,940.6
2017-07-21T02:47:42.585Z,940.6
2017-07-21T02:48:50.676Z,940.6
2017-07-21T02:49:58.819Z,940.6
2017-07-21T02:51:06.853Z,940.6
2017-07-21T02:52:15.051Z,940.6
2017-07-21T02:53:23.027Z,940.6
2017-07-21T02:54:31.121Z,940.6
2017-07-21T02:55:39.327Z,940.6
2017-07-21T02:56:47.295Z,940.7
2017-07-21T02:57:55.381Z,940.6
2017-07-21T02:59:03.494Z,940.6
2017-07-21T03:00:11.563Z,940.6
2017-07-21T03:01:19.725Z,940.6
2017-07-21T03:02:27.740Z,940.7
2017-07-21T03:03:35.826Z,940.7
2017-07-21T03:04:43.916Z,940.7
2017-07-21T03:05:52.005Z,940.7
2017-07-21T03:07:00.149Z,940.7
2017-07-21T03:08:08.184Z,940.7
2017-07-21T03:09:16.397Z,940.7
2017-07-21T03:10:24.358Z,940.7
2017-07-21T03:11:32.506Z,940.7
2017-07-21T03:12:40.654Z,940.7
2017-07-21T03:13:48.624Z,940.8
2017-07-21T03:14:56.710Z,940.8
2017-07-21T03:16:04.799Z,940.8
2017-07-21T03:17:12.887Z,940.8
2017-07-21T03:18:21.036Z,940.8
2017-07-21T03:19:29.068Z,940.7
2017-07-21T03:20:37.156Z,940.7
2017-07-21T03:21:45.250Z,940.7
2017-07-21T03:22:53.336Z,940.7
2017-07-21T03:24:01.481Z,940.8
2017-07-21T03:25:09.517Z,940.7
2017-07-21T03:26:17.706Z,940.8
2017-07-21T03:27:25.817Z,940.8
2017-07-21T03:28:33.786Z,940.8
2017-07-21T03:29:41.930Z,940.9
2017-07-21T03:30:49.965Z,940.9
2017-07-21T03:31:58.051Z,940.9
2017-07-21T03:33:06.138Z,940.9
2017-07-21T03:34:14.228Z,940.9
2017-07-21T03:35:22.372Z,940.9
2017-07-21T03:36:30.403Z,940.8
2017-07-21T03:37:38.640Z,940.8
2017-07-21T03:38:46.581Z,940.8
2017-07-21T03:39:54.669Z,940.7
2017-07-21T03:41:02.877Z,940.7
2017-07-21T03:42:10.845Z,940.7
2017-07-21T03:43:19.024Z,940.7
2017-07-21T03:44:27.028Z,940.7
2017-07-21T03:45:35.126Z,940.7
2017-07-21T03:46:43.268Z,940.8
2017-07-21T03:47:51.300Z,940.7
2017-07-21T03:48:59.386Z,940.8
2017-07-21T03:50:07.477Z,940.8
2017-07-21T03:51:15.565Z,940.8
2017-07-21T03:52:23.776Z,940.8
2017-07-21T03:53:31.964Z,940.7
2017-07-21T03:54:40.053Z,940.8
2017-07-21T03:55:48.165Z,940.7
2017-07-21T03:56:56.248Z,940.7
2017-07-21T03:58:04.559Z,940.7
2017-07-21T03:59:12.634Z,940.8
2017-07-21T04:00:20.487Z,940.7
2017-07-21T04:01:28.740Z,940.8
2017-07-21T04:02:36.772Z,940.8
2017-07-21T04:03:45.175Z,940.8
2017-07-21T04:04:52.967Z,940.8
2017-07-21T04:06:01.040Z,940.8
2017-07-21T04:07:09.164Z,940.8
2017-07-21T04:08:17.265Z,940.7
2017-07-21T04:09:25.608Z,940.8
2017-07-21T04:10:33.513Z,940.7
2017-07-21T04:11:41.607Z,940.8
2017-07-21T04:12:49.240Z,940.7
2017-07-21T04:13:57.328Z,940.8
2017-07-21T04:15:05.539Z,940.8
2017-07-21T04:16:13.506Z,940.8
2017-07-21T04:17:21.594Z,940.8
2017-07-21T04:18:29.683Z,940.8
2017-07-21T04:19:37.769Z,940.8
2017-07-21T04:20:45.935Z,940.8
2017-07-21T04:21:54.089Z,940.8
2017-07-21T04:23:02.034Z,940.8
2017-07-21T04:24:10.125Z,940.8
2017-07-21T04:25:18.213Z,940.8
2017-07-21T04:26:26.424Z,940.8
2017-07-21T04:27:34.387Z,940.8
2017-07-21T04:28:43.033Z,940.8
2017-07-21T04:29:50.838Z,940.8
2017-07-21T04:30:58.708Z,940.8
2017-07-21T04:32:06.924Z,940.8
2017-07-21T04:33:14.830Z,940.8
2017-07-21T04:34:22.917Z,940.8
2017-07-21T04:35:31.007Z,940.8
2017-07-21T04:36:39.182Z,940.8
2017-07-21T04:37:47.540Z,940.8
2017-07-21T04:38:55.280Z,940.7
2017-07-21T04:40:03.354Z,940.7
2017-07-21T04:41:11.669Z,940.7
2017-07-21T04:42:19.535Z,940.7
2017-07-21T04:43:27.680Z,940.7
2017-07-21T04:44:35.717Z,940.7
2017-07-21T04:45:43.805Z,940.7
2017-07-21T04:46:52.013Z,940.7
2017-07-21T04:47:59.979Z,940.7
2017-07-21T04:49:08.124Z,940.6
2017-07-21T04:50:16.157Z,940.6
2017-07-21T04:51:24.246Z,940.6
2017-07-21T04:52:32.340Z,940.6
2017-07-21T04:53:40.461Z,940.6
2017-07-21T04:54:48.719Z,940.6
2017-07-21T04:55:56.829Z,940.6
2017-07-21T04:57:05.326Z,940.6
2017-07-21T04:58:13.214Z,940.6
2017-07-21T04:59:20.876Z,940.6
2017-07-21T05:00:29.157Z,940.6
2017-07-21T05:01:37.049Z,940.6
2017-07-21T05:02:45.888Z,940.7
2017-07-21T05:03:53.316Z,940.7
2017-07-21T05:05:01.763Z,940.7
2017-07-21T05:06:11.529Z,940.7
2017-07-21T05:07:17.493Z,940.7
2017-07-21T05:08:25.579Z,940.7
2017-07-21T05:09:33.667Z,940.7
2017-07-21T05:10:41.912Z,940.7
2017-07-21T05:11:50.085Z,940.7
2017-07-21T05:12:57.932Z,940.7
2017-07-21T05:14:06.020Z,940.7
2017-07-21T05:15:14.108Z,940.7
2017-07-21T05:16:22.197Z,940.8
2017-07-21T05:17:30.467Z,940.7
2017-07-21T05:18:38.431Z,940.7
2017-07-21T05:19:46.463Z,940.7
2017-07-21T05:20:54.551Z,940.8
2017-07-21T05:22:02.639Z,940.8
2017-07-21T05:23:10.782Z,940.8
2017-07-21T05:24:18.821Z,940.8
2017-07-21T05:25:26.906Z,940.8
2017-07-21T05:26:34.990Z,940.8
2017-07-21T05:27:43.253Z,940.8
2017-07-21T05:28:51.457Z,940.8
2017-07-21T05:29:59.255Z,940.8
2017-07-21T05:31:07.344Z,940.8
2017-07-21T05:32:15.432Z,940.8
2017-07-21T05:33:23.520Z,940.8
2017-07-21T05:34:31.662Z,940.8
2017-07-21T05:35:39.695Z,940.7
2017-07-21T05:36:47.786Z,940.8
2017-07-21T05:37:55.872Z,940.8
2017-07-21T05:39:03.960Z,940.8
2017-07-21T05:40:12.170Z,940.8
2017-07-21T05:41:20.138Z,940.8
2017-07-21T05:42:28.223Z,940.8
2017-07-21T05:43:36.313Z,940.9
2017-07-21T05:44:44.399Z,940.9
2017-07-21T05:45:52.546Z,940.9
2017-07-21T05:47:00.580Z,940.9
2017-07-21T05:48:08.669Z,940.9
2017-07-21T05:49:16.753Z,940.9
2017-07-21T05:50:24.965Z,940.9
2017-07-21T05:51:32.990Z,940.9
2017-07-21T05:52:41.020Z,940.9
2017-07-21T05:53:49.107Z,940.9
2017-07-21T05:54:57.196Z,940.9
2017-07-21T05:56:05.389Z,941.0
2017-07-21T05:57:13.590Z,940.9
2017-07-21T05:58:21.463Z,941.0
2017-07-21T05:59:29.552Z,941.0
2017-07-21T06:00:37.641Z,941.0
2017-07-21T06:01:45.728Z,941.0
2017-07-21T06:02:53.936Z,941.0
2017-07-21T06:04:01.904Z,941.0
2017-07-21T06:05:09.991Z,941.0
2017-07-21T06:06:18.319Z,941.0
2017-07-21T06:07:26.347Z,941.0
2017-07-21T06:08:34.378Z,940.9
2017-07-21T06:09:42.344Z,940.9
2017-07-21T06:10:50.435Z,941.0
2017-07-21T06:11:58.521Z,940.9
2017-07-21T06:13:06.610Z,941.0
2017-07-21T06:14:14.756Z,940.9
2017-07-21T06:15:22.786Z,940.9
2017-07-21T06:16:30.876Z,940.9
2017-07-21T06:17:38.962Z,940.9
2017-07-21T06:18:47.063Z,940.9
2017-07-21T06:19:55.205Z,940.9
2017-07-21T06:21:03.238Z,940.9
2017-07-21T06:22:11.446Z,940.9
2017-07-21T06:23:19.415Z,940.9
2017-07-21T06:24:27.502Z,940.9
2017-07-21T06:25:35.649Z,940.9
2017-07-21T06:26:43.679Z,940.9
2017-07-21T06:27:51.768Z,940.9
2017-07-21T06:28:59.856Z,940.9
2017-07-21T06:30:07.942Z,940.9
2017-07-21T06:31:16.154Z,940.9
2017-07-21T06:32:24.122Z,940.9
2017-07-21T06:33:32.216Z,940.9
2017-07-21T06:34:40.437Z,940.9
2017-07-21T06:35:48.393Z,941.0
2017-07-21T06:36:56.540Z,940.9
2017-07-21T06:38:04.693Z,940.9
2017-07-21T06:39:12.657Z,940.9
2017-07-21T06:40:20.772Z,940.9
2017-07-21T06:41:28.864Z,940.9
2017-07-21T06:42:36.980Z,941.0
2017-07-21T06:43:45.013Z,940.9
2017-07-21T06:44:53.298Z,940.9
2017-07-21T06:46:01.389Z,940.9
2017-07-21T06:47:09.277Z,940.9
2017-07-21T06:48:17.485Z,940.9
2017-07-21T06:49:25.455Z,940.9
2017-07-21T06:50:33.544Z,940.9
2017-07-21T06:51:41.709Z,940.9
2017-07-21T06:52:49.720Z,940.9
2017-07-21T06:53:57.863Z,940.9
2017-07-21T06:55:05.894Z,940.9
2017-07-21T06:56:13.984Z,940.8
2017-07-21T06:57:22.078Z,940.8
2017-07-21T06:58:30.161Z,940.9
2017-07-21T06:59:38.368Z,940.9
2017-07-21T07:00:46.349Z,940.9
2017-07-21T07:01:54.434Z,940.8
2017-07-21T07:03:02.523Z,940.8
2017-07-21T07:04:10.609Z,940.8
2017-07-21T07:05:18.754Z,940.8
2017-07-21T07:06:26.784Z,940.8
2017-07-21T07:07:34.871Z,940.8
2017-07-21T07:08:42.976Z,940.8
2017-07-21T07:09:51.168Z,940.8
2017-07-21T07:10:59.196Z,940.8
2017-07-21T07:12:07.226Z,940.8
2017-07-21T07:13:15.314Z,940.7
2017-07-21T07:14:23.403Z,940.8
2017-07-21T07:15:31.511Z,940.7
2017-07-21T07:16:39.640Z,940.8
2017-07-21T07:17:47.668Z,940.8
2017-07-21T07:18:55.935Z,940.8
2017-07-21T07:20:04.013Z,940.8
2017-07-21T07:21:11.934Z,940.8
2017-07-21T07:22:20.143Z,940.8
2017-07-21T07:23:28.114Z,940.8
2017-07-21T07:24:36.201Z,940.8
2017-07-21T07:25:44.355Z,940.8
2017-07-21T07:26:52.375Z,940.7
2017-07-21T07:28:00.583Z,940.7
2017-07-21T07:29:08.552Z,940.7
2017-07-21T07:30:16.831Z,940.7
2017-07-21T07:31:24.730Z,940.7
2017-07-21T07:32:32.819Z,940.7
2017-07-21T07:33:40.961Z,940.7
2017-07-21T07:34:49.001Z,940.7
2017-07-21T07:35:57.150Z,940.7
2017-07-21T07:37:05.227Z,940.8
2017-07-21T07:38:13.263Z,940.7
2017-07-21T07:39:21.473Z,940.7
2017-07-21T07:40:29.442Z,940.8
2017-07-21T07:41:37.587Z,940.7
2017-07-21T07:42:45.619Z,940.7
2017-07-21T07:43:53.709Z,940.7
2017-07-21T07:45:01.916Z,940.7
2017-07-21T07:46:09.882Z,940.7
2017-07-21T07:47:18.094Z,940.7
2017-07-21T07:48:26.060Z,940.7
2017-07-21T07:49:34.149Z,940.7
2017-07-21T07:50:42.292Z,940.7
2017-07-21T07:51:50.326Z,940.8
2017-07-21T07:52:58.412Z,940.7
2017-07-21T07:54:06.500Z,940.7
2017-07-21T07:55:14.588Z,940.7
2017-07-21T07:56:22.795Z,940.7
2017-07-21T07:57:30.820Z,940.7
2017-07-21T07:58:38.852Z,940.7
2017-07-21T07:59:46.941Z,940.7
2017-07-21T08:00:55.033Z,940.7
2017-07-21T08:02:03.177Z,940.7
2017-07-21T08:03:11.207Z,940.7
2017-07-21T08:04:19.381Z,940.7
2017-07-21T08:05:27.392Z,940.7
2017-07-21T08:06:35.471Z,940.7
2017-07-21T08:07:43.617Z,940.7
2017-07-21T08:08:51.650Z,940.7
2017-07-21T08:09:59.740Z,940.7
2017-07-21T08:11:07.839Z,940.7
2017-07-21T08:12:15.916Z,940.7
2017-07-21T08:13:24.126Z,940.7
2017-07-21T08:14:32.092Z,940.7
2017-07-21T08:15:40.356Z,940.7
2017-07-21T08:16:48.268Z,940.7
2017-07-21T08:17:56.357Z,940.6
2017-07-21T08:19:04.503Z,940.6
2017-07-21T08:20:12.536Z,940.6
2017-07-21T08:21:20.626Z,940.6
2017-07-21T08:22:28.715Z,940.6
2017-07-21T08:23:36.804Z,940.6
2017-07-21T08:24:45.011Z,940.6
2017-07-21T08:25:53.178Z,940.6
2017-07-21T08:27:01.076Z,940.6
2017-07-21T08:28:09.163Z,940.6
2017-07-21T08:29:17.309Z,940.6
2017-07-21T08:30:25.461Z,940.6
2017-07-21T08:31:33.431Z,940.7
2017-07-21T08:32:41.519Z,940.6
2017-07-21T08:33:49.609Z,940.5
2017-07-21T08:34:57.696Z,940.5
2017-07-21T08:36:05.905Z,940.5
2017-07-21T08:37:13.874Z,940.5
2017-07-21T08:38:21.964Z,940.5
2017-07-21T08:39:30.052Z,940.5
2017-07-21T08:40:38.140Z,940.5
2017-07-21T08:41:46.287Z,940.5
2017-07-21T08:42:54.435Z,940.5
2017-07-21T08:44:02.407Z,940.4
2017-07-21T08:45:10.617Z,940.5
2017-07-21T08:46:18.585Z,940.4
2017-07-21T08:47:26.729Z,940.4
2017-07-21T08:48:34.763Z,940.4
2017-07-21T08:49:42.859Z,940.4
2017-07-21T08:50:50.940Z,940.5
2017-07-21T08:51:59.029Z,940.5
2017-07-21T08:53:07.236Z,940.5
2017-07-21T08:54:15.377Z,940.4
2017-07-21T08:55:23.298Z,940.5
2017-07-21T08:56:31.387Z,940.5
2017-07-21T08:57:39.474Z,940.5
2017-07-21T08:58:47.618Z,940.5
2017-07-21T08:59:55.697Z,940.5
2017-07-21T09:01:03.860Z,940.5
2017-07-21T09:02:11.828Z,940.5
2017-07-21T09:03:19.916Z,940.4
2017-07-21T09:04:28.062Z,940.4
2017-07-21T09:05:36.093Z,940.4
2017-07-21T09:06:44.180Z,940.4
2017-07-21T09:07:52.272Z,940.4
2017-07-21T09:09:00.361Z,940.4
2017-07-21T09:10:08.571Z,940.4
2017-07-21T09:11:16.540Z,940.3
2017-07-21T09:12:24.629Z,940.3
2017-07-21T09:13:32.717Z,940.3
2017-07-21T09:14:40.806Z,940.3
2017-07-21T09:15:48.954Z,940.3
2017-07-21T09:16:57.107Z,940.3
2017-07-21T09:18:05.074Z,940.3
2017-07-21T09:19:13.163Z,940.3
2017-07-21T09:20:21.254Z,940.2
2017-07-21T09:21:29.529Z,940.2
2017-07-21T09:22:37.464Z,940.2
2017-07-21T09:23:45.518Z,940.3
2017-07-21T09:24:53.607Z,940.3
2017-07-21T09:26:01.702Z,940.2
2017-07-21T09:27:09.923Z,940.3
2017-07-21T09:28:17.892Z,940.2
2017-07-21T09:29:25.978Z,940.3
2017-07-21T09:30:34.067Z,940.2
2017-07-21T09:31:42.154Z,940.2
2017-07-21T09:32:50.546Z,940.2
2017-07-21T09:33:58.334Z,940.2
2017-07-21T09:35:06.421Z,940.2
2017-07-21T09:36:14.513Z,940.2
2017-07-21T09:37:22.604Z,940.2
2017-07-21T09:38:30.856Z,940.2
2017-07-21T09:39:38.813Z,940.2
2017-07-21T09:40:46.869Z,940.2
2017-07-21T09:41:54.958Z,940.2
2017-07-21T09:43:03.047Z,940.1
2017-07-21T09:44:11.194Z,940.1
2017-07-21T09:45:19.227Z,940.1
2017-07-21T09:46:27.316Z,940.1
2017-07-21T09:47:35.404Z,940.1
2017-07-21T09:48:43.615Z,940.1
2017-07-21T09:49:51.813Z,940.0
2017-07-21T09:50:59.671Z,940.1
2017-07-21T09:52:07.758Z,940.0
2017-07-21T09:53:15.849Z,940.0
2017-07-21T09:54:23.937Z,940.0
2017-07-21T09:55:32.122Z,940.1
2017-07-21T09:56:40.148Z,940.0
2017-07-21T09:57:48.207Z,940.0
2017-07-21T09:58:56.296Z,940.0
2017-07-21T10:00:04.384Z,940.0
2017-07-21T10:01:12.594Z,940.0
2017-07-21T10:02:20.561Z,940.0
2017-07-21T10:03:28.651Z,940.0
2017-07-21T10:04:36.868Z,940.0
2017-07-21T10:05:44.838Z,940.0
2017-07-21T10:06:53.052Z,940.0
2017-07-21T10:08:01.013Z,940.0
2017-07-21T10:09:09.103Z,940.0
2017-07-21T10:10:17.195Z,940.0
2017-07-21T10:11:25.281Z,940.0
2017-07-21T10:12:33.490Z,940.0
2017-07-21T10:13:41.459Z,940.0
2017-07-21T10:14:49.552Z,939.9
2017-07-21T10:15:57.639Z,939.9
2017-07-21T10:17:05.884Z,939.9
2017-07-21T10:18:14.021Z,939.9
2017-07-21T10:19:21.904Z,939.9
2017-07-21T10:20:30.052Z,939.9
2017-07-21T10:21:38.085Z,939.9
2017-07-21T10:22:46.173Z,939.9
2017-07-21T10:23:54.332Z,939.9
2017-07-21T10:25:02.354Z,939.9
2017-07-21T10:26:10.442Z,939.9
2017-07-21T10:27:18.532Z,939.9
2017-07-21T10:28:26.811Z,939.9
2017-07-21T10:29:34.764Z,939.8
2017-07-21T10:30:42.800Z,939.8
2017-07-21T10:31:50.889Z,939.8
2017-07-21T10:32:58.979Z,939.8
2017-07-21T10:34:07.106Z,939.8
2017-07-21T10:35:15.240Z,939.8
2017-07-21T10:36:23.246Z,939.8
2017-07-21T10:37:31.331Z,939.8
2017-07-21T10:38:39.423Z,939.7
2017-07-21T10:39:47.569Z,939.7
2017-07-21T10:40:55.604Z,939.6
2017-07-21T10:42:03.693Z,939.6
2017-07-21T10:43:11.783Z,939.7
2017-07-21T10:44:19.871Z,939.7
2017-07-21T10:45:28.176Z,939.7
2017-07-21T10:46:36.049Z,939.6
2017-07-21T10:47:44.138Z,939.6
2017-07-21T10:48:52.227Z,939.6
2017-07-21T10:50:00.320Z,939.6
2017-07-21T10:51:08.463Z,939.6
2017-07-21T10:52:16.496Z,939.6
2017-07-21T10:53:24.585Z,939.5
2017-07-21T10:54:32.674Z,939.5
2017-07-21T10:55:40.937Z,939.5
2017-07-21T10:56:49.136Z,939.6
2017-07-21T10:57:56.939Z,939.5
2017-07-21T10:59:05.031Z,939.5
2017-07-21T11:00:13.121Z,939.5
2017-07-21T11:01:21.210Z,939.5
2017-07-21T11:02:29.410Z,939.5
2017-07-21T11:03:37.395Z,939.4
2017-07-21T11:04:45.483Z,939.4
2017-07-21T11:05:53.573Z,939.4
2017-07-21T11:07:01.783Z,939.4
2017-07-21T11:08:09.811Z,939.3
2017-07-21T11:09:17.841Z,939.3
2017-07-21T11:10:25.932Z,939.3
2017-07-21T11:11:34.021Z,939.3
2017-07-21T11:12:42.200Z,939.3
2017-07-21T11:13:50.413Z,939.3
2017-07-21T11:14:58.298Z,939.4
2017-07-21T11:16:06.386Z,939.3
2017-07-21T11:17:14.529Z,939.3
2017-07-21T11:18:22.564Z,939.3
2017-07-21T11:19:30.774Z,939.3
2017-07-21T11:20:38.744Z,939.3
2017-07-21T11:21:46.834Z,939.3
2017-07-21T11:22:54.978Z,939.2
2017-07-21T11:24:03.132Z,939.3
2017-07-21T11:25:11.221Z,939.3
2017-07-21T11:26:19.197Z,939.3
2017-07-21T11:27:27.278Z,939.3
2017-07-21T11:28:35.370Z,939.3
2017-07-21T11:29:43.458Z,939.3
2017-07-21T11:30:51.607Z,939.3
2017-07-21T11:31:59.636Z,939.3
2017-07-21T11:33:07.725Z,939.3
2017-07-21T11:34:15.875Z,939.2
2017-07-21T11:35:24.051Z,939.3
2017-07-21T11:36:32.115Z,939.2
2017-07-21T11:37:40.083Z,939.3
2017-07-21T11:38:48.232Z,939.3
2017-07-21T11:39:56.264Z,939.2
2017-07-21T11:41:04.388Z,939.2
2017-07-21T11:42:12.565Z,939.2
2017-07-21T11:43:20.531Z,939.2
2017-07-21T11:44:28.640Z,939.2
2017-07-21T11:45:36.710Z,939.2
2017-07-21T11:46:44.800Z,939.1
2017-07-21T11:47:52.947Z,939.1
2017-07-21T11:49:00.980Z,939.2
2017-07-21T11:50:09.069Z,939.1
2017-07-21T11:51:17.228Z,939.1
2017-07-21T11:52:25.306Z,939.1
2017-07-21T11:53:33.456Z,939.1
2017-07-21T11:54:41.481Z,939.1
2017-07-21T11:55:49.515Z,939.1
2017-07-21T11:56:57.605Z,939.1
2017-07-21T11:58:05.704Z,939.0
2017-07-21T11:59:13.840Z,939.0
2017-07-21T12:00:21.882Z,939.1
2017-07-21T12:01:29.971Z,939.0
2017-07-21T12:02:38.212Z,939.0
2017-07-21T12:03:46.146Z,939.1
2017-07-21T12:04:54.293Z,939.1
2017-07-21T12:06:02.326Z,938.9
2017-07-21T12:07:10.417Z,938.9
2017-07-21T12:08:18.544Z,938.9
2017-07-21T12:09:26.599Z,938.9
2017-07-21T12:10:34.743Z,938.9
2017-07-21T12:11:42.777Z,938.9
2017-07-21T12:12:50.864Z,939.0
2017-07-21T12:13:59.154Z,938.9
2017-07-21T12:15:07.045Z,939.0
2017-07-21T12:16:15.253Z,938.9
2017-07-21T12:17:23.224Z,938.9
2017-07-21T12:18:31.314Z,939.0
2017-07-21T12:19:39.403Z,938.9
2017-07-21T12:20:47.491Z,938.9
2017-07-21T12:21:55.644Z,938.9
2017-07-21T12:23:03.679Z,938.9
2017-07-21T12:24:11.770Z,938.9
2017-07-21T12:25:19.894Z,938.9
2017-07-21T12:26:28.071Z,938.9
2017-07-21T12:27:36.096Z,938.9
2017-07-21T12:28:44.127Z,938.8
2017-07-21T12:29:52.216Z,938.8
2017-07-21T12:31:00.346Z,938.8
2017-07-21T12:32:08.396Z,938.8
2017-07-21T12:33:16.540Z,938.8
2017-07-21T12:34:24.574Z,938.8
2017-07-21T12:35:32.664Z,938.7
2017-07-21T12:36:40.755Z,938.8
2017-07-21T12:37:48.844Z,938.7
2017-07-21T12:38:57.054Z,938.8
2017-07-21T12:40:05.021Z,938.7
2017-07-21T12:41:13.303Z,938.8
2017-07-21T12:42:21.331Z,938.7
2017-07-21T12:43:29.289Z,938.7
2017-07-21T12:44:37.501Z,938.7
2017-07-21T12:45:45.475Z,938.7
2017-07-21T12:46:53.567Z,938.7
2017-07-21T12:48:01.682Z,938.7
2017-07-21T12:49:09.743Z,938.6
2017-07-21T12:50:17.888Z,938.6
2017-07-21T12:51:25.923Z,938.6
2017-07-21T12:52:34.196Z,938.6
2017-07-21T12:53:42.106Z,938.7
2017-07-21T12:54:50.196Z,938.6
2017-07-21T12:55:58.407Z,938.6
2017-07-21T12:57:06.376Z,938.6
2017-07-21T12:58:14.527Z,938.6
2017-07-21T12:59:22.559Z,938.6
2017-07-21T13:00:30.649Z,938.6
2017-07-21T13:01:38.860Z,938.6
2017-07-21T13:02:46.829Z,938.5
2017-07-21T13:03:54.919Z,938.6
2017-07-21T13:05:03.008Z,938.5
2017-07-21T13:06:11.096Z,938.5
2017-07-21T13:07:19.308Z,938.5
2017-07-21T13:08:27.276Z,938.5
2017-07-21T13:09:35.368Z,938.5
2017-07-21T13:10:43.457Z,938.5
2017-07-21T13:11:51.546Z,938.4
2017-07-21T13:12:59.757Z,938.5
2017-07-21T13:14:07.785Z,938.5
2017-07-21T13:15:15.816Z,938.4
2017-07-21T13:16:23.904Z,938.4
2017-07-21T13:17:31.994Z,938.4
2017-07-21T13:18:40.140Z,938.4
2017-07-21T13:19:48.245Z,938.4
2017-07-21T13:20:56.332Z,938.3
2017-07-21T13:22:04.353Z,938.3
2017-07-21T13:23:12.443Z,938.3
2017-07-21T13:24:20.653Z,938.3
2017-07-21T13:25:28.621Z,938.3
2017-07-21T13:26:36.710Z,938.3
2017-07-21T13:27:44.804Z,938.3
2017-07-21T13:28:52.892Z,938.2
2017-07-21T13:30:01.400Z,938.2
2017-07-21T13:31:09.164Z,938.2
2017-07-21T13:32:17.161Z,938.2
2017-07-21T13:33:25.251Z,938.1
2017-07-21T13:34:33.339Z,938.2
2017-07-21T13:35:41.486Z,938.1
2017-07-21T13:36:49.518Z,938.1
2017-07-21T13:37:57.616Z,938.1
2017-07-21T13:39:05.704Z,938.1
2017-07-21T13:40:13.802Z,938.1
2017-07-21T13:41:22.197Z,938.1
2017-07-21T13:42:30.160Z,938.1
2017-07-21T13:43:38.072Z,938.0
2017-07-21T13:44:46.160Z,938.0
2017-07-21T13:45:54.306Z,938.0
2017-07-21T13:47:02.459Z,938.0
2017-07-21T13:48:10.430Z,938.0
2017-07-21T13:49:18.540Z,938.0
2017-07-21T13:50:26.628Z,938.0
2017-07-21T13:51:34.719Z,938.0
2017-07-21T13:52:43.015Z,938.0
2017-07-21T13:53:50.899Z,937.9
2017-07-21T13:54:58.990Z,937.9
2017-07-21T13:56:07.080Z,937.9
2017-07-21T13:57:15.166Z,937.9
2017-07-21T13:58:23.316Z,937.9
2017-07-21T13:59:31.380Z,937.9
2017-07-21T14:00:39.438Z,937.9
2017-07-21T14:01:47.584Z,937.9
2017-07-21T14:02:55.617Z,937.8
2017-07-21T14:04:04.027Z,937.8
2017-07-21T14:05:11.800Z,937.8
2017-07-21T14:06:19.886Z,937.8
2017-07-21T14:07:27.974Z,937.8
2017-07-21T14:08:36.065Z,937.8
2017-07-21T14:09:44.282Z,937.8
2017-07-21T14:10:52.244Z,937.7
2017-07-21T14:12:00.338Z,937.8
2017-07-21T14:13:08.576Z,937.7
2017-07-21T14:14:16.752Z,937.7
2017-07-21T14:15:25.061Z,937.7
2017-07-21T14:16:32.933Z,937.7
2017-07-21T14:17:41.289Z,937.7
2017-07-21T14:18:49.095Z,937.6
2017-07-21T14:19:57.332Z,937.6
2017-07-21T14:21:05.693Z,937.6
2017-07-21T14:22:13.364Z,937.6
2017-07-21T14:23:21.481Z,937.6
2017-07-21T14:24:29.666Z,937.6
2017-07-21T14:25:37.692Z,937.6
2017-07-21T14:26:45.991Z,937.6
2017-07-21T14:27:54.028Z,937.6
2017-07-21T14:29:02.058Z,937.6
2017-07-21T14:30:10.179Z,937.6
2017-07-21T14:31:18.441Z,937.6
2017-07-21T14:32:26.809Z,937.6
2017-07-21T14:33:34.676Z,937.6
2017-07-21T14:34:42.454Z,937.5
2017-07-21T14:35:50.554Z,937.6
2017-07-21T14:36:58.708Z,937.5